Time;durP1;ratioP1;P1;durP2;ratioP2;P2;SDS_P1;SDS_P2;PMS_P1;PMS_P2;Temp;Humidity;BMP_temperature;BMP_pressure;BME280_temperature;BME280_humidity;BME280_pressure;Samples;Min_cycle;Max_cycle;Signal;HPM_P1;HPM_P2
2024/01/19 00:01:43;;;;;;;11.38;7.78;;;;;;;;;;4905829;29;20135;-83
2024/01/19 00:04:27;;;;;;;16.40;9.90;;;;;;;;;;4885824;29;20095;-84
2024/01/19 00:07:12;;;;;;;18.77;8.75;;;;;;;;;;4903091;29;20103;-84
2024/01/19 00:09:56;;;;;;;19.27;9.13;;;;;;;;;;4900067;29;20514;-83
2024/01/19 00:12:40;;;;;;;20.85;9.35;;;;;;;;;;4899926;29;20038;-86
2024/01/19 00:15:24;;;;;;;9.77;8.68;;;;;;;;;;4901729;29;20537;-82
2024/01/19 00:18:08;;;;;;;13.32;9.27;;;;;;;;;;4903329;29;20120;-83
2024/01/19 00:20:52;;;;;;;11.75;9.43;;;;;;;;;;4899268;29;20513;-84
2024/01/19 00:23:36;;;;;;;10.52;9.25;;;;;;;;;;4901490;29;20048;-84
2024/01/19 00:26:20;;;;;;;15.85;9.32;;;;;;;;;;4906329;29;20115;-83
2024/01/19 00:29:04;;;;;;;12.25;8.88;;;;;;;;;;4920937;29;20114;-83
2024/01/19 00:31:48;;;;;;;17.70;9.27;;;;;;;;;;4939556;29;20091;-83
2024/01/19 00:34:32;;;;;;;11.60;8.13;;;;;;;;;;4933907;29;20077;-83
2024/01/19 00:37:16;;;;;;;12.85;8.43;;;;;;;;;;4936317;29;20109;-83
2024/01/19 00:40:00;;;;;;;12.18;7.95;;;;;;;;;;4942458;29;20034;-83
2024/01/19 00:42:44;;;;;;;16.15;7.90;;;;;;;;;;4923350;29;20085;-84
2024/01/19 00:45:27;;;;;;;13.82;8.15;;;;;;;;;;4942123;29;20509;-83
2024/01/19 00:48:11;;;;;;;15.05;7.47;;;;;;;;;;4921660;29;20517;-84
2024/01/19 00:50:56;;;;;;;20.60;6.95;;;;;;;;;;4931671;29;20041;-84
2024/01/19 00:53:40;;;;;;;12.85;7.03;;;;;;;;;;4929354;29;20111;-82
2024/01/19 00:56:24;;;;;;;12.73;6.57;;;;;;;;;;4940449;29;20051;-84
2024/01/19 00:59:08;;;;;;;13.68;6.32;;;;;;;;;;4939636;29;20406;-83
2024/01/19 01:01:52;;;;;;;9.65;6.20;;;;;;;;;;4946269;29;20046;-83
2024/01/19 01:04:36;;;;;;;13.30;6.53;;;;;;;;;;4937834;29;20094;-83
2024/01/19 01:07:20;;;;;;;8.27;6.32;;;;;;;;;;4942485;29;20102;-83
2024/01/19 01:10:05;;;;;;;8.27;5.65;;;;;;;;;;4933072;29;20058;-83
2024/01/19 01:12:49;;;;;;;6.95;5.68;;;;;;;;;;4931159;29;20103;-82
2024/01/19 01:15:33;;;;;;;8.93;6.05;;;;;;;;;;4928547;29;20047;-84
2024/01/19 01:18:17;;;;;;;13.35;5.88;;;;;;;;;;4930388;29;20098;-82
2024/01/19 01:21:01;;;;;;;14.82;5.35;;;;;;;;;;4939305;29;20043;-84
2024/01/19 01:23:45;;;;;;;10.35;5.40;;;;;;;;;;4928898;29;20062;-84
2024/01/19 01:26:29;;;;;;;12.02;5.07;;;;;;;;;;4925259;29;20091;-83
2024/01/19 01:29:13;;;;;;;11.85;5.25;;;;;;;;;;4925165;29;20051;-82
2024/01/19 01:31:56;;;;;;;10.77;6.00;;;;;;;;;;4944409;29;20402;-82
2024/01/19 01:34:40;;;;;;;9.50;5.00;;;;;;;;;;4930811;29;20042;-84
2024/01/19 01:37:24;;;;;;;8.00;5.70;;;;;;;;;;4932701;29;20082;-85
2024/01/19 01:40:10;;;;;;;6.03;5.43;;;;;;;;;;4945743;29;20394;-84
2024/01/19 01:42:58;;;;;;;9.63;5.10;;;;;;;;;;4936863;29;20099;-85
2024/01/19 01:45:43;;;;;;;7.55;5.55;;;;;;;;;;4927697;29;20508;-85
2024/01/19 01:48:27;;;;;;;9.70;5.50;;;;;;;;;;4939803;29;20053;-85
2024/01/19 01:51:12;;;;;;;10.75;5.18;;;;;;;;;;4930925;29;20055;-84
2024/01/19 01:53:56;;;;;;;8.88;5.13;;;;;;;;;;4937077;29;20038;-84
2024/01/19 01:56:40;;;;;;;7.25;5.22;;;;;;;;;;4939019;29;20458;-83
2024/01/19 01:59:24;;;;;;;6.03;4.88;;;;;;;;;;4930579;29;20063;-83
2024/01/19 02:02:08;;;;;;;7.03;5.18;;;;;;;;;;4939561;29;20033;-85
2024/01/19 02:04:52;;;;;;;6.60;5.13;;;;;;;;;;4945815;29;20425;-84
2024/01/19 02:07:36;;;;;;;12.55;5.82;;;;;;;;;;4948723;29;20042;-84
2024/01/19 02:10:20;;;;;;;11.10;5.13;;;;;;;;;;4937357;29;20066;-85
2024/01/19 02:13:04;;;;;;;9.02;5.60;;;;;;;;;;4925328;29;20046;-84
2024/01/19 02:15:48;;;;;;;8.65;5.60;;;;;;;;;;4924514;29;20050;-84
2024/01/19 02:18:32;;;;;;;9.85;6.07;;;;;;;;;;4945341;29;20128;-84
2024/01/19 02:21:17;;;;;;;8.15;5.88;;;;;;;;;;4943924;29;20094;-84
2024/01/19 02:24:02;;;;;;;5.47;5.00;;;;;;;;;;4928331;29;20565;-83
2024/01/19 02:26:46;;;;;;;10.85;5.30;;;;;;;;;;4933583;29;20047;-83
2024/01/19 02:29:30;;;;;;;9.50;4.88;;;;;;;;;;4932390;29;20610;-83
2024/01/19 02:32:14;;;;;;;10.02;6.53;;;;;;;;;;4929541;29;20050;-83
2024/01/19 02:34:58;;;;;;;8.98;5.32;;;;;;;;;;4925632;29;20070;-84
2024/01/19 02:37:42;;;;;;;12.48;5.60;;;;;;;;;;4926518;29;20123;-84
2024/01/19 02:40:26;;;;;;;10.65;6.00;;;;;;;;;;4924556;29;20035;-84
2024/01/19 02:43:10;;;;;;;11.20;6.13;;;;;;;;;;4925264;29;20042;-84
2024/01/19 02:45:55;;;;;;;9.75;5.70;;;;;;;;;;4927821;29;20421;-85
2024/01/19 02:48:38;;;;;;;10.15;6.07;;;;;;;;;;4925943;29;20050;-84
2024/01/19 02:51:22;;;;;;;9.73;5.13;;;;;;;;;;4930722;29;20034;-84
2024/01/19 02:54:06;;;;;;;6.35;4.80;;;;;;;;;;4941262;29;20043;-84
2024/01/19 02:56:50;;;;;;;5.97;5.30;;;;;;;;;;4928138;29;20034;-84
2024/01/19 02:59:34;;;;;;;10.38;5.40;;;;;;;;;;4944505;29;20047;-84
2024/01/19 03:02:20;;;;;;;9.45;5.50;;;;;;;;;;4945944;29;20051;-83
2024/01/19 03:05:04;;;;;;;8.43;5.68;;;;;;;;;;4940626;29;20065;-84
2024/01/19 03:07:48;;;;;;;8.07;6.78;;;;;;;;;;4932898;29;20094;-85
2024/01/19 03:10:32;;;;;;;8.40;5.15;;;;;;;;;;4930218;29;20393;-84
2024/01/19 03:13:17;;;;;;;9.07;5.55;;;;;;;;;;4923530;29;20426;-84
2024/01/19 03:16:05;;;;;;;12.32;5.72;;;;;;;;;;4942444;29;20046;-84
2024/01/19 03:18:49;;;;;;;9.30;4.75;;;;;;;;;;4929408;29;20050;-84
2024/01/19 03:21:33;;;;;;;9.65;5.10;;;;;;;;;;4933544;29;20090;-85
2024/01/19 03:24:17;;;;;;;7.28;5.00;;;;;;;;;;4941777;29;20034;-85
2024/01/19 03:27:01;;;;;;;8.80;5.38;;;;;;;;;;4933578;29;20191;-83
2024/01/19 03:29:47;;;;;;;9.45;5.25;;;;;;;;;;4927197;29;20171;-82
2024/01/19 03:32:31;;;;;;;12.73;5.68;;;;;;;;;;4934836;29;20038;-85
2024/01/19 03:35:14;;;;;;;6.43;5.55;;;;;;;;;;4938755;29;20102;-84
2024/01/19 03:37:58;;;;;;;9.40;5.90;;;;;;;;;;4944398;29;20070;-85
2024/01/19 03:40:42;;;;;;;7.88;5.20;;;;;;;;;;4928833;29;20043;-85
2024/01/19 03:43:26;;;;;;;6.85;5.00;;;;;;;;;;4941250;29;20507;-85
2024/01/19 03:46:10;;;;;;;5.90;5.20;;;;;;;;;;4945163;29;20131;-84
2024/01/19 03:48:54;;;;;;;7.95;5.47;;;;;;;;;;4928033;29;20047;-85
2024/01/19 03:51:55;;;;;;;6.03;5.40;;;;;;;;;;4931331;29;20526;-84
2024/01/19 03:54:40;;;;;;;6.60;5.43;;;;;;;;;;4929443;29;20062;-85
2024/01/19 03:57:24;;;;;;;6.82;5.95;;;;;;;;;;4922850;29;20110;-84
2024/01/19 04:00:08;;;;;;;10.30;6.10;;;;;;;;;;4943815;29;20082;-86
2024/01/19 04:02:52;;;;;;;7.85;6.00;;;;;;;;;;4945401;29;20070;-84
2024/01/19 04:05:36;;;;;;;10.60;6.90;;;;;;;;;;4933834;29;20045;-84
2024/01/19 04:08:20;;;;;;;7.40;6.70;;;;;;;;;;4927995;29;20078;-85
2024/01/19 04:11:04;;;;;;;7.63;6.90;;;;;;;;;;4930900;29;20070;-84
2024/01/19 04:13:48;;;;;;;16.40;7.93;;;;;;;;;;4927273;29;20046;-84
2024/01/19 04:16:32;;;;;;;11.70;7.25;;;;;;;;;;4928075;29;20513;-84
2024/01/19 04:19:16;;;;;;;15.48;8.45;;;;;;;;;;4943932;29;20381;-83
2024/01/19 04:22:00;;;;;;;11.98;8.38;;;;;;;;;;4921889;29;20090;-84
2024/01/19 04:24:44;;;;;;;10.30;8.57;;;;;;;;;;4926705;29;20039;-83
2024/01/19 04:27:28;;;;;;;13.35;8.52;;;;;;;;;;4936378;29;20054;-83
2024/01/19 04:30:12;;;;;;;17.05;8.93;;;;;;;;;;4925483;29;20051;-83
2024/01/19 04:32:56;;;;;;;15.98;9.18;;;;;;;;;;4928139;29;20088;-83
2024/01/19 04:35:40;;;;;;;12.48;9.23;;;;;;;;;;4948475;29;20061;-84
2024/01/19 04:38:24;;;;;;;13.88;9.55;;;;;;;;;;4947645;29;20039;-84
2024/01/19 04:41:07;;;;;;;12.48;9.82;;;;;;;;;;4927647;29;20035;-84
2024/01/19 04:43:51;;;;;;;12.35;8.73;;;;;;;;;;4944657;29;20516;-84
2024/01/19 04:46:35;;;;;;;17.13;9.95;;;;;;;;;;4932822;29;20073;-83
2024/01/19 04:49:19;;;;;;;11.32;9.63;;;;;;;;;;4945890;29;20305;-84
2024/01/19 04:52:03;;;;;;;15.63;9.90;;;;;;;;;;4932428;29;20039;-85
2024/01/19 04:54:47;;;;;;;13.50;11.60;;;;;;;;;;4936265;29;20047;-83
2024/01/19 04:57:31;;;;;;;11.73;8.98;;;;;;;;;;4924324;29;20501;-85
2024/01/19 05:00:15;;;;;;;18.00;8.43;;;;;;;;;;4946135;29;20101;-83
2024/01/19 05:03:00;;;;;;;12.93;9.70;;;;;;;;;;4929626;29;20035;-84
2024/01/19 05:05:44;;;;;;;14.23;9.07;;;;;;;;;;4935323;29;20554;-83
2024/01/19 05:08:28;;;;;;;13.13;9.05;;;;;;;;;;4946882;29;20138;-84
2024/01/19 05:11:13;;;;;;;12.80;10.10;;;;;;;;;;4944381;29;20038;-83
2024/01/19 05:13:57;;;;;;;18.45;8.85;;;;;;;;;;4945588;29;20042;-84
2024/01/19 05:16:41;;;;;;;14.43;9.25;;;;;;;;;;4939175;29;20557;-84
2024/01/19 05:19:25;;;;;;;13.85;8.48;;;;;;;;;;4930725;29;20066;-85
2024/01/19 05:22:09;;;;;;;11.75;9.15;;;;;;;;;;4929529;29;20119;-83
2024/01/19 05:24:53;;;;;;;13.85;10.05;;;;;;;;;;4944060;29;20042;-84
2024/01/19 05:27:37;;;;;;;16.27;10.88;;;;;;;;;;4926355;29;20187;-85
2024/01/19 05:30:21;;;;;;;13.65;11.10;;;;;;;;;;4928158;29;20042;-84
2024/01/19 05:33:04;;;;;;;21.75;13.13;;;;;;;;;;4929400;29;20466;-85
2024/01/19 05:35:48;;;;;;;23.25;13.68;;;;;;;;;;4926650;29;20115;-84
2024/01/19 05:38:32;;;;;;;22.10;14.73;;;;;;;;;;4939115;29;20454;-84
2024/01/19 05:41:20;;;;;;;17.88;14.00;;;;;;;;;;4925406;29;20391;-83
2024/01/19 05:44:04;;;;;;;20.52;13.70;;;;;;;;;;4939238;29;20099;-83
2024/01/19 05:46:48;;;;;;;15.88;13.95;;;;;;;;;;4931206;29;20564;-84
2024/01/19 05:49:32;;;;;;;15.73;13.95;;;;;;;;;;4925841;29;20110;-83
2024/01/19 05:52:16;;;;;;;19.63;13.20;;;;;;;;;;4927640;29;20512;-84
2024/01/19 05:55:00;;;;;;;19.58;13.30;;;;;;;;;;4933973;29;20146;-84
2024/01/19 05:57:44;;;;;;;23.05;13.52;;;;;;;;;;4931084;29;20039;-85
2024/01/19 06:00:29;;;;;;;15.98;13.10;;;;;;;;;;4928235;29;20039;-84
2024/01/19 06:03:12;;;;;;;19.73;12.30;;;;;;;;;;4942431;29;20066;-84
2024/01/19 06:05:56;;;;;;;20.15;12.40;;;;;;;;;;4926855;29;20110;-83
2024/01/19 06:08:40;;;;;;;12.50;11.15;;;;;;;;;;4942875;29;20404;-82
2024/01/19 06:11:24;;;;;;;13.10;10.40;;;;;;;;;;4930304;29;20035;-84
2024/01/19 06:14:08;;;;;;;14.32;9.25;;;;;;;;;;4930760;29;20434;-84
2024/01/19 06:16:52;;;;;;;13.90;9.82;;;;;;;;;;4942653;29;20043;-85
2024/01/19 06:19:36;;;;;;;20.15;10.20;;;;;;;;;;4927159;29;20046;-83
2024/01/19 06:22:20;;;;;;;16.15;10.45;;;;;;;;;;4926114;29;20041;-84
2024/01/19 06:25:07;;;;;;;23.75;10.85;;;;;;;;;;4926878;29;20051;-84
2024/01/19 06:27:51;;;;;;;13.30;9.05;;;;;;;;;;4933509;29;20050;-83
2024/01/19 06:30:35;;;;;;;13.05;9.30;;;;;;;;;;4937648;29;20042;-84
2024/01/19 06:33:19;;;;;;;14.30;9.32;;;;;;;;;;4946089;29;20038;-82
2024/01/19 06:36:07;;;;;;;13.75;9.00;;;;;;;;;;4929924;29;20038;-84
2024/01/19 06:38:54;;;;;;;21.85;8.30;;;;;;;;;;4927328;29;20047;-84
2024/01/19 06:41:44;;;;;;;10.52;8.57;;;;;;;;;;4932183;29;20087;-83
2024/01/19 06:44:28;;;;;;;8.40;7.60;;;;;;;;;;4935622;29;20045;-83
2024/01/19 06:47:12;;;;;;;8.77;6.78;;;;;;;;;;4934014;29;20467;-83
2024/01/19 06:49:56;;;;;;;9.15;6.75;;;;;;;;;;4931457;29;20454;-83
2024/01/19 06:52:40;;;;;;;8.30;6.88;;;;;;;;;;4922447;29;20181;-84
2024/01/19 06:55:24;;;;;;;7.38;6.68;;;;;;;;;;4927966;29;20549;-84
2024/01/19 06:58:08;;;;;;;11.80;6.10;;;;;;;;;;4941788;29;20046;-84
2024/01/19 07:00:52;;;;;;;11.27;7.20;;;;;;;;;;4936937;29;20504;-83
2024/01/19 07:03:36;;;;;;;11.35;6.32;;;;;;;;;;4939396;29;20043;-84
2024/01/19 07:06:20;;;;;;;11.18;6.35;;;;;;;;;;4923571;29;20503;-83
2024/01/19 07:09:04;;;;;;;11.30;6.88;;;;;;;;;;4927007;29;20046;-83
2024/01/19 07:11:49;;;;;;;13.80;6.35;;;;;;;;;;4927064;29;20095;-84
2024/01/19 07:14:32;;;;;;;7.40;5.32;;;;;;;;;;4925787;29;20042;-83
2024/01/19 07:17:17;;;;;;;10.45;4.85;;;;;;;;;;4926742;29;20035;-85
2024/01/19 07:20:03;;;;;;;8.75;5.43;;;;;;;;;;4940369;29;20107;-84
2024/01/19 07:22:47;;;;;;;6.15;4.60;;;;;;;;;;4944263;29;20071;-84
2024/01/19 07:25:31;;;;;;;7.93;5.63;;;;;;;;;;4931002;29;22304;-84
2024/01/19 07:28:15;;;;;;;7.47;5.18;;;;;;;;;;4933284;29;20107;-84
2024/01/19 07:30:59;;;;;;;7.25;5.45;;;;;;;;;;4923090;29;20566;-85
2024/01/19 07:33:43;;;;;;;7.55;5.20;;;;;;;;;;4923864;29;20058;-82
2024/01/19 07:36:27;;;;;;;7.47;4.82;;;;;;;;;;4927279;29;20110;-82
2024/01/19 07:39:12;;;;;;;8.07;5.03;;;;;;;;;;4933486;29;21533;-84
2024/01/19 07:41:56;;;;;;;8.40;4.85;;;;;;;;;;4927308;29;20091;-82
2024/01/19 07:44:40;;;;;;;7.80;4.35;;;;;;;;;;4923527;29;20548;-81
2024/01/19 07:47:24;;;;;;;6.10;4.72;;;;;;;;;;4925432;29;20516;-81
2024/01/19 07:50:10;;;;;;;5.70;4.40;;;;;;;;;;4933299;29;20496;-82
2024/01/19 07:52:54;;;;;;;6.95;4.80;;;;;;;;;;4921673;29;20497;-83
2024/01/19 07:55:38;;;;;;;11.18;5.20;;;;;;;;;;4930538;29;20038;-81
2024/01/19 07:58:24;;;;;;;8.50;5.40;;;;;;;;;;4929820;29;20501;-84
2024/01/19 08:04:34;;;;;;;6.22;5.30;;;;;;;;;;4937721;28;20043;-90
2024/01/19 08:07:18;;;;;;;9.38;5.35;;;;;;;;;;4939073;29;20501;-84
2024/01/19 08:10:02;;;;;;;7.00;5.32;;;;;;;;;;4941726;29;20034;-86
2024/01/19 08:12:49;;;;;;;11.65;5.75;;;;;;;;;;4930623;29;20043;-84
2024/01/19 08:15:33;;;;;;;9.70;5.30;;;;;;;;;;4946622;29;20597;-82
2024/01/19 08:18:17;;;;;;;9.00;6.15;;;;;;;;;;4929060;29;20565;-83
2024/01/19 08:21:03;;;;;;;8.50;5.75;;;;;;;;;;4927309;29;20143;-85
2024/01/19 08:23:48;;;;;;;8.65;5.28;;;;;;;;;;4927257;29;20043;-84
2024/01/19 08:26:32;;;;;;;10.05;5.50;;;;;;;;;;4927394;29;20581;-85
2024/01/19 08:29:16;;;;;;;10.98;5.88;;;;;;;;;;4930180;29;20083;-84
2024/01/19 08:32:00;;;;;;;8.32;5.20;;;;;;;;;;4942867;29;20054;-83
2024/01/19 08:34:44;;;;;;;5.97;4.80;;;;;;;;;;4940907;29;20047;-85
2024/01/19 08:37:29;;;;;;;6.95;4.38;;;;;;;;;;4924063;29;20091;-84
2024/01/19 08:40:13;;;;;;;8.63;4.90;;;;;;;;;;4945723;29;20540;-83
2024/01/19 08:42:56;;;;;;;10.05;4.75;;;;;;;;;;4928377;29;20037;-85
2024/01/19 08:45:40;;;;;;;6.38;4.90;;;;;;;;;;4936947;29;20058;-86
2024/01/19 08:48:25;;;;;;;5.10;4.60;;;;;;;;;;4946796;29;20038;-87
2024/01/19 08:51:17;;;;;;;10.10;4.60;;;;;;;;;;4928523;29;20126;-86
2024/01/19 08:54:11;;;;;;;5.10;4.60;;;;;;;;;;4936716;29;20039;-86
2024/01/19 08:56:55;;;;;;;6.18;5.43;;;;;;;;;;4935114;29;20505;-88
2024/01/19 08:59:39;;;;;;;5.13;4.72;;;;;;;;;;4945152;29;20082;-88
2024/01/19 09:02:23;;;;;;;6.90;4.88;;;;;;;;;;4928618;29;20050;-87
2024/01/19 09:05:11;;;;;;;7.65;5.30;;;;;;;;;;4932657;29;20120;-89
2024/01/19 09:07:55;;;;;;;6.28;5.03;;;;;;;;;;4936583;29;20114;-85
2024/01/19 09:10:39;;;;;;;7.38;5.47;;;;;;;;;;4933153;29;20510;-83
2024/01/19 09:13:23;;;;;;;7.93;6.32;;;;;;;;;;4943701;29;20043;-85
2024/01/19 09:16:08;;;;;;;7.22;6.50;;;;;;;;;;4932247;29;20099;-84
2024/01/19 09:18:51;;;;;;;9.73;5.93;;;;;;;;;;4935461;29;20118;-84
2024/01/19 09:21:35;;;;;;;6.68;5.90;;;;;;;;;;4945881;29;20090;-84
2024/01/19 09:24:20;;;;;;;6.25;5.70;;;;;;;;;;4927506;29;20067;-83
2024/01/19 09:27:04;;;;;;;6.60;5.82;;;;;;;;;;4923312;29;20046;-85
2024/01/19 09:29:48;;;;;;;6.63;5.43;;;;;;;;;;4946985;29;20054;-86
2024/01/19 09:32:32;;;;;;;8.13;6.07;;;;;;;;;;4928016;29;20045;-81
2024/01/19 09:35:16;;;;;;;5.95;4.85;;;;;;;;;;4944333;29;20058;-86
2024/01/19 09:38:00;;;;;;;5.78;5.28;;;;;;;;;;4930597;29;20845;-84
2024/01/19 09:40:45;;;;;;;5.35;4.88;;;;;;;;;;4928704;29;20046;-84
2024/01/19 09:43:32;;;;;;;9.18;5.55;;;;;;;;;;4933764;29;20090;-84
2024/01/19 09:46:19;;;;;;;5.88;5.25;;;;;;;;;;4941557;29;20573;-86
2024/01/19 09:49:22;;;;;;;6.88;5.90;;;;;;;;;;4934528;29;20182;-88
2024/01/19 09:52:19;;;;;;;6.53;5.82;;;;;;;;;;4931921;29;20110;-87
2024/01/19 09:55:04;;;;;;;5.85;5.25;;;;;;;;;;4932618;29;20047;-88
2024/01/19 09:57:48;;;;;;;7.07;5.60;;;;;;;;;;4931305;29;20442;-90
2024/01/19 10:00:32;;;;;;;5.38;4.95;;;;;;;;;;4930809;29;20035;-88
2024/01/19 10:03:19;;;;;;;5.38;4.97;;;;;;;;;;4928181;29;20042;-87
2024/01/19 10:06:03;;;;;;;6.13;5.47;;;;;;;;;;4933199;29;20127;-89
2024/01/19 10:08:47;;;;;;;5.40;4.90;;;;;;;;;;4936502;29;20043;-90
2024/01/19 10:11:32;;;;;;;7.03;5.40;;;;;;;;;;4934212;29;20090;-88
2024/01/19 10:14:16;;;;;;;6.20;5.47;;;;;;;;;;4941066;29;20046;-91
2024/01/19 10:17:02;;;;;;;7.18;5.30;;;;;;;;;;4936610;29;20070;-86
2024/01/19 10:19:49;;;;;;;7.38;6.13;;;;;;;;;;4935567;29;20086;-88
2024/01/19 10:22:33;;;;;;;6.40;5.80;;;;;;;;;;4913076;29;20096;-88
2024/01/19 10:25:18;;;;;;;7.50;5.63;;;;;;;;;;4939079;29;20046;-89
2024/01/19 10:28:02;;;;;;;6.60;5.80;;;;;;;;;;4937024;29;20091;-85
2024/01/19 10:30:46;;;;;;;6.18;5.78;;;;;;;;;;4918959;29;20039;-88
2024/01/19 10:33:30;;;;;;;9.52;5.97;;;;;;;;;;4933422;29;20042;-88
2024/01/19 10:36:14;;;;;;;12.13;5.97;;;;;;;;;;4936068;29;20038;-87
2024/01/19 10:39:14;;;;;;;6.15;5.65;;;;;;;;;;4926668;29;20461;-86
2024/01/19 10:42:05;;;;;;;7.53;4.90;;;;;;;;;;4937227;29;20086;-87
2024/01/19 10:44:50;;;;;;;6.43;5.93;;;;;;;;;;4935865;29;20042;-91
2024/01/19 10:47:34;;;;;;;6.13;5.63;;;;;;;;;;4944566;29;20050;-82
2024/01/19 10:50:18;;;;;;;6.40;5.80;;;;;;;;;;4926034;29;20124;-80
2024/01/19 10:53:10;;;;;;;6.22;5.70;;;;;;;;;;4931898;29;20175;-86
2024/01/19 10:55:53;;;;;;;6.30;5.63;;;;;;;;;;4927824;29;20146;-83
2024/01/19 10:58:37;;;;;;;6.53;5.93;;;;;;;;;;4934885;29;20389;-87
2024/01/19 11:01:22;;;;;;;7.63;5.70;;;;;;;;;;4931041;29;20119;-87
2024/01/19 11:04:08;;;;;;;9.07;5.50;;;;;;;;;;4938240;29;20054;-85
2024/01/19 11:06:52;;;;;;;8.02;5.78;;;;;;;;;;4929253;29;20126;-87
2024/01/19 11:09:37;;;;;;;10.52;6.28;;;;;;;;;;4935112;29;20166;-85
2024/01/19 11:12:21;;;;;;;7.05;6.40;;;;;;;;;;4940547;29;20709;-87
2024/01/19 11:15:07;;;;;;;7.50;6.70;;;;;;;;;;4925304;29;20133;-87
2024/01/19 11:17:51;;;;;;;6.60;6.00;;;;;;;;;;4934110;29;21933;-86
2024/01/19 11:20:35;;;;;;;6.45;5.65;;;;;;;;;;4926934;29;20039;-83
2024/01/19 11:23:20;;;;;;;12.90;6.10;;;;;;;;;;4927160;29;20401;-86
2024/01/19 11:26:04;;;;;;;7.80;5.82;;;;;;;;;;4914321;29;20051;-86
2024/01/19 11:28:57;;;;;;;6.13;5.63;;;;;;;;;;4932051;29;20101;-85
2024/01/19 11:31:42;;;;;;;8.68;5.88;;;;;;;;;;4941861;29;20034;-87
2024/01/19 11:34:40;;;;;;;6.88;5.22;;;;;;;;;;4928153;29;20412;-83
2024/01/19 11:37:44;;;;;;;8.68;6.45;;;;;;;;;;4940631;29;20450;-84
2024/01/19 11:40:29;;;;;;;7.93;5.72;;;;;;;;;;4930231;29;20184;-86
2024/01/19 11:43:33;;;;;;;10.15;5.95;;;;;;;;;;4940194;29;20122;-85
2024/01/19 11:46:37;;;;;;;5.97;5.55;;;;;;;;;;4927120;29;20094;-87
2024/01/19 11:49:30;;;;;;;6.90;5.70;;;;;;;;;;4922711;29;20105;-86
2024/01/19 11:52:14;;;;;;;5.85;5.40;;;;;;;;;;4926799;29;20046;-87
2024/01/19 11:54:58;;;;;;;5.43;4.93;;;;;;;;;;4924283;29;20062;-85
2024/01/19 11:57:42;;;;;;;7.05;5.40;;;;;;;;;;4924930;29;20398;-86
2024/01/19 12:00:29;;;;;;;7.40;5.47;;;;;;;;;;4931874;29;20039;-84
2024/01/19 12:03:13;;;;;;;6.22;5.63;;;;;;;;;;4930356;29;20043;-87
2024/01/19 12:05:58;;;;;;;5.57;5.07;;;;;;;;;;4931925;29;20046;-87
2024/01/19 12:08:42;;;;;;;7.32;5.55;;;;;;;;;;4924442;29;20054;-85
2024/01/19 12:11:26;;;;;;;6.45;4.78;;;;;;;;;;4933668;29;20054;-86
2024/01/19 12:14:12;;;;;;;5.35;4.80;;;;;;;;;;4929484;29;20042;-84
2024/01/19 12:17:20;;;;;;;13.10;6.60;;;;;;;;;;4938105;29;20043;-85
2024/01/19 12:20:09;;;;;;;6.57;4.75;;;;;;;;;;4900781;29;20058;-88
2024/01/19 12:22:55;;;;;;;8.30;4.72;;;;;;;;;;4888961;29;20518;-86
2024/01/19 12:25:39;;;;;;;8.55;4.90;;;;;;;;;;4888383;29;20059;-86
2024/01/19 12:28:24;;;;;;;6.63;4.32;;;;;;;;;;4905855;29;20060;-84
2024/01/19 12:31:27;;;;;;;5.85;5.00;;;;;;;;;;4892686;29;20587;-86
2024/01/19 12:34:12;;;;;;;11.48;5.25;;;;;;;;;;4898327;29;20076;-87
2024/01/19 12:36:56;;;;;;;4.60;4.20;;;;;;;;;;4886980;29;20095;-87
2024/01/19 12:39:40;;;;;;;5.30;4.70;;;;;;;;;;4900673;29;20050;-85
2024/01/19 12:42:24;;;;;;;7.13;5.50;;;;;;;;;;4884476;29;20063;-84
2024/01/19 12:45:10;;;;;;;8.13;5.07;;;;;;;;;;4889219;29;20047;-85
2024/01/19 12:47:54;;;;;;;9.80;5.20;;;;;;;;;;4901305;29;20039;-85
2024/01/19 12:50:38;;;;;;;5.93;4.95;;;;;;;;;;4913548;29;20046;-86
2024/01/19 12:53:22;;;;;;;11.00;4.72;;;;;;;;;;4942087;29;20054;-88
2024/01/19 12:56:25;;;;;;;4.95;3.88;;;;;;;;;;4930014;29;20042;-85
2024/01/19 12:59:12;;;;;;;4.53;3.95;;;;;;;;;;4928540;29;20094;-84
2024/01/19 13:01:56;;;;;;;4.97;4.07;;;;;;;;;;4931526;29;20529;-86
2024/01/19 13:04:40;;;;;;;8.82;4.35;;;;;;;;;;4942721;29;20122;-86
2024/01/19 13:07:25;;;;;;;4.65;4.30;;;;;;;;;;4939355;29;20061;-86
2024/01/19 13:10:09;;;;;;;7.45;4.75;;;;;;;;;;4942996;29;20599;-84
2024/01/19 13:13:09;;;;;;;4.60;4.20;;;;;;;;;;4929644;29;20035;-86
2024/01/19 13:15:53;;;;;;;6.45;4.97;;;;;;;;;;4930159;29;20054;-86
2024/01/19 13:18:38;;;;;;;5.45;4.80;;;;;;;;;;4930426;29;20046;-86
2024/01/19 13:21:24;;;;;;;6.05;5.28;;;;;;;;;;4941951;29;20536;-85
2024/01/19 13:24:08;;;;;;;7.65;5.30;;;;;;;;;;4941300;29;20062;-86
2024/01/19 13:27:02;;;;;;;10.50;5.00;;;;;;;;;;4928823;29;20062;-85
2024/01/19 13:29:46;;;;;;;;;;;;;;;;;;4946231;29;20067;-86
2024/01/19 13:32:30;;;;;;;8.57;4.90;;;;;;;;;;4933818;29;19922;-85
2024/01/19 13:35:14;;;;;;;5.43;4.95;;;;;;;;;;4928632;29;20078;-85
2024/01/19 13:37:58;;;;;;;5.82;4.70;;;;;;;;;;4943948;29;20142;-85
2024/01/19 13:40:42;;;;;;;5.38;4.95;;;;;;;;;;4943887;29;20030;-85
2024/01/19 13:43:26;;;;;;;5.82;4.07;;;;;;;;;;4934053;29;20039;-86
2024/01/19 13:46:11;;;;;;;5.57;4.90;;;;;;;;;;4934738;29;20049;-86
2024/01/19 13:48:55;;;;;;;5.68;4.80;;;;;;;;;;4927945;29;20042;-87
2024/01/19 13:51:38;;;;;;;6.35;4.25;;;;;;;;;;4943305;29;20550;-85
2024/01/19 13:54:22;;;;;;;5.68;4.55;;;;;;;;;;4928275;29;20131;-87
2024/01/19 13:57:06;;;;;;;5.05;4.65;;;;;;;;;;4935115;29;20054;-86
2024/01/19 13:59:51;;;;;;;7.43;4.78;;;;;;;;;;4927098;29;20069;-87
2024/01/19 14:02:35;;;;;;;5.95;5.25;;;;;;;;;;4927738;29;20054;-86
2024/01/19 14:05:19;;;;;;;6.07;4.85;;;;;;;;;;4943323;29;20075;-87
2024/01/19 14:08:04;;;;;;;6.70;5.05;;;;;;;;;;4929325;29;20401;-87
2024/01/19 14:10:49;;;;;;;7.20;5.28;;;;;;;;;;4927624;29;20046;-86
2024/01/19 14:13:33;;;;;;;8.57;5.40;;;;;;;;;;4938519;29;20058;-86
2024/01/19 14:16:17;;;;;;;4.82;4.47;;;;;;;;;;4926369;29;20101;-86
2024/01/19 14:19:03;;;;;;;8.60;4.95;;;;;;;;;;4930621;29;20394;-85
2024/01/19 14:21:46;;;;;;;5.25;4.75;;;;;;;;;;4930781;29;20055;-87
2024/01/19 14:24:32;;;;;;;10.25;4.40;;;;;;;;;;4929957;29;20098;-87
2024/01/19 14:27:17;;;;;;;5.28;4.78;;;;;;;;;;4940279;29;20083;-86
2024/01/19 14:30:01;;;;;;;5.55;4.68;;;;;;;;;;4923704;29;20096;-85
2024/01/19 14:32:48;;;;;;;4.80;4.40;;;;;;;;;;4928864;29;20034;-87
2024/01/19 14:35:33;;;;;;;7.22;4.40;;;;;;;;;;4927977;29;20401;-84
2024/01/19 14:38:17;;;;;;;7.13;4.75;;;;;;;;;;4929206;29;20134;-85
2024/01/19 14:41:02;;;;;;;5.60;4.72;;;;;;;;;;4941654;29;20043;-85
2024/01/19 14:43:47;;;;;;;5.93;4.47;;;;;;;;;;4930879;29;20034;-87
2024/01/19 14:46:32;;;;;;;5.60;4.63;;;;;;;;;;4930575;29;20039;-85
2024/01/19 14:49:23;;;;;;;6.28;4.57;;;;;;;;;;4925919;29;20055;-87
2024/01/19 14:52:07;;;;;;;7.57;5.10;;;;;;;;;;4942423;29;20082;-84
2024/01/19 14:54:54;;;;;;;7.78;4.80;;;;;;;;;;4929234;29;20054;-86
2024/01/19 14:57:38;;;;;;;5.25;4.75;;;;;;;;;;4934092;29;20083;-85
2024/01/19 15:00:22;;;;;;;4.38;3.97;;;;;;;;;;4943756;29;20086;-87
2024/01/19 15:03:06;;;;;;;5.72;4.75;;;;;;;;;;4933477;29;20183;-87
2024/01/19 15:05:50;;;;;;;8.68;4.60;;;;;;;;;;4941362;29;20357;-86
2024/01/19 15:08:34;;;;;;;5.25;4.70;;;;;;;;;;4932083;29;20536;-84
2024/01/19 15:11:17;;;;;;;5.45;4.70;;;;;;;;;;4924899;29;20093;-88
2024/01/19 15:14:01;;;;;;;6.90;5.35;;;;;;;;;;4926769;29;20508;-87
2024/01/19 15:16:45;;;;;;;5.95;5.30;;;;;;;;;;4922643;29;20051;-86
2024/01/19 15:19:29;;;;;;;9.15;5.72;;;;;;;;;;4947580;29;20114;-90
2024/01/19 15:22:13;;;;;;;10.40;5.25;;;;;;;;;;4932814;29;20178;-89
2024/01/19 15:24:59;;;;;;;9.40;5.25;;;;;;;;;;4925131;29;20030;-89
2024/01/19 15:27:44;;;;;;;6.13;5.05;;;;;;;;;;4931985;29;20527;-87
2024/01/19 15:30:28;;;;;;;6.78;4.90;;;;;;;;;;4924159;29;20509;-87
2024/01/19 15:33:11;;;;;;;5.55;5.15;;;;;;;;;;4928666;29;20546;-88
2024/01/19 15:36:10;;;;;;;8.30;5.35;;;;;;;;;;4924297;29;20095;-87
2024/01/19 15:38:55;;;;;;;9.15;5.68;;;;;;;;;;4924137;29;20042;-84
2024/01/19 15:41:38;;;;;;;6.47;5.18;;;;;;;;;;4927988;29;20147;-85
2024/01/19 15:44:24;;;;;;;5.25;4.80;;;;;;;;;;4923973;29;20073;-83
2024/01/19 15:47:07;;;;;;;6.28;5.40;;;;;;;;;;4921198;29;20107;-86
2024/01/19 15:49:51;;;;;;;9.20;5.40;;;;;;;;;;4940707;29;20571;-84
2024/01/19 15:52:35;;;;;;;9.80;5.68;;;;;;;;;;4926489;29;20050;-85
2024/01/19 15:55:19;;;;;;;6.45;5.60;;;;;;;;;;4923574;29;20043;-83
2024/01/19 15:58:03;;;;;;;7.97;5.28;;;;;;;;;;4927635;29;20042;-84
2024/01/19 16:00:47;;;;;;;9.15;5.95;;;;;;;;;;4930530;29;20050;-85
2024/01/19 16:03:31;;;;;;;11.95;7.72;;;;;;;;;;4942969;29;20030;-85
2024/01/19 16:06:15;;;;;;;9.75;7.75;;;;;;;;;;4923289;29;20130;-85
2024/01/19 16:09:00;;;;;;;14.20;6.65;;;;;;;;;;4924833;29;20512;-86
2024/01/19 16:11:48;;;;;;;10.52;7.47;;;;;;;;;;4927455;29;20047;-85
2024/01/19 16:14:33;;;;;;;7.65;6.00;;;;;;;;;;4946479;29;20117;-83
2024/01/19 16:17:17;;;;;;;8.70;7.10;;;;;;;;;;4929518;29;20444;-86
2024/01/19 16:20:03;;;;;;;9.93;7.63;;;;;;;;;;4943286;29;20049;-85
2024/01/19 16:22:47;;;;;;;13.30;7.63;;;;;;;;;;4943711;29;20067;-84
2024/01/19 16:25:33;;;;;;;12.25;7.43;;;;;;;;;;4944155;28;20047;-84
2024/01/19 16:28:17;;;;;;;12.85;6.53;;;;;;;;;;4904900;29;20064;-85